createdAt,value
2018-05-24T00:01:30.344Z,6.57
2018-05-24T00:03:58.433Z,6.33
2018-05-24T00:06:28.278Z,6.27
2018-05-24T00:08:55.867Z,6.87
2018-05-24T00:11:24.289Z,7.60
2018-05-24T00:13:52.437Z,6.97
2018-05-24T00:16:21.068Z,7.33
2018-05-24T00:18:48.969Z,8.17
2018-05-24T00:21:16.747Z,7.80
2018-05-24T00:23:44.736Z,7.17
2018-05-24T00:26:13.614Z,7.23
2018-05-24T00:28:41.495Z,7.67
2018-05-24T00:31:10.543Z,7.53
2018-05-24T00:33:39.396Z,7.53
2018-05-24T00:36:07.850Z,8.23
2018-05-24T00:38:36.451Z,8.30
2018-05-24T00:41:04.964Z,7.70
2018-05-24T00:43:32.576Z,7.13
2018-05-24T00:46:00.673Z,8.03
2018-05-24T00:48:29.529Z,7.23
2018-05-24T00:50:57.559Z,7.07
2018-05-24T00:53:25.247Z,7.10
2018-05-24T00:55:52.948Z,8.80
2018-05-24T00:58:21.101Z,7.67
2018-05-24T01:00:48.765Z,7.93
2018-05-24T01:03:16.405Z,8.93
2018-05-24T01:05:44.852Z,7.40
2018-05-24T01:08:12.561Z,7.30
2018-05-24T01:10:40.672Z,8.23
2018-05-24T01:13:08.857Z,6.83
2018-05-24T01:15:36.742Z,7.50
2018-05-24T01:18:04.517Z,7.90
2018-05-24T01:20:33.971Z,6.83
2018-05-24T01:23:02.944Z,6.20
2018-05-24T01:25:30.593Z,7.30
2018-05-24T01:27:58.968Z,7.10
2018-05-24T01:30:27.356Z,7.17
2018-05-24T01:32:55.515Z,8.47
2018-05-24T01:35:23.135Z,7.80
2018-05-24T01:37:50.803Z,9.10
2018-05-24T01:40:18.430Z,8.90
2018-05-24T01:42:46.063Z,10.47
2018-05-24T01:45:14.049Z,9.37
2018-05-24T01:47:42.718Z,8.97
2018-05-24T01:50:10.771Z,8.90
2018-05-24T01:52:38.403Z,9.33
2018-05-24T01:55:06.202Z,9.20
2018-05-24T01:57:34.717Z,9.37
2018-05-24T02:00:02.857Z,10.60
2018-05-24T02:02:31.393Z,10.63
2018-05-24T02:04:59.011Z,10.10
2018-05-24T02:07:26.933Z,10.80
2018-05-24T02:09:54.786Z,11.13
2018-05-24T02:12:22.479Z,11.00
2018-05-24T02:14:50.407Z,10.93
2018-05-24T02:17:18.046Z,11.63
2018-05-24T02:19:45.713Z,11.70
2018-05-24T02:22:13.300Z,12.40
2018-05-24T02:24:40.879Z,11.47
2018-05-24T02:27:09.680Z,11.27
2018-05-24T02:29:38.673Z,12.03
2018-05-24T02:32:10.698Z,11.83
2018-05-24T02:34:38.282Z,11.57
2018-05-24T02:37:06.875Z,11.17
2018-05-24T02:39:35.364Z,11.63
2018-05-24T02:42:03.855Z,11.10
2018-05-24T02:44:32.345Z,9.70
2018-05-24T02:47:00.298Z,11.67
2018-05-24T02:49:29.041Z,11.53
2018-05-24T02:51:56.623Z,9.93
2018-05-24T02:54:24.598Z,11.27
2018-05-24T02:56:53.746Z,11.17
2018-05-24T02:59:21.353Z,11.47
2018-05-24T03:01:49.024Z,12.00
2018-05-24T03:04:16.778Z,10.80
2018-05-24T03:06:44.430Z,9.03
2018-05-24T03:09:12.164Z,10.17
2018-05-24T03:11:40.556Z,10.33
2018-05-24T03:14:08.942Z,11.83
2018-05-24T03:16:36.900Z,11.27
2018-05-24T03:19:04.641Z,12.37
2018-05-24T03:21:33.049Z,10.77
2018-05-24T03:24:00.751Z,10.97
2018-05-24T03:26:28.375Z,11.97
2018-05-24T03:28:56.586Z,13.10
2018-05-24T03:31:25.785Z,11.40
2018-05-24T03:33:54.483Z,11.40
2018-05-24T03:36:22.110Z,10.73
2018-05-24T03:38:50.534Z,11.23
2018-05-24T03:41:19.976Z,12.07
2018-05-24T03:43:48.657Z,11.53
2018-05-24T03:46:16.853Z,11.67
2018-05-24T03:48:44.780Z,11.30
2018-05-24T03:51:12.462Z,13.13
2018-05-24T03:53:40.106Z,11.53
2018-05-24T03:56:08.643Z,12.63
2018-05-24T03:58:36.236Z,14.70
2018-05-24T04:01:15.761Z,14.00
2018-05-24T04:03:48.386Z,11.83
2018-05-24T04:06:16.194Z,14.53
2018-05-24T04:08:44.400Z,13.93
2018-05-24T04:11:13.006Z,15.33
2018-05-24T04:13:40.590Z,16.40
2018-05-24T04:16:08.178Z,16.03
2018-05-24T04:18:37.346Z,17.10
2018-05-24T04:21:04.940Z,17.00
2018-05-24T04:23:32.551Z,16.80
2018-05-24T04:26:00.182Z,17.50
2018-05-24T04:28:27.791Z,15.50
2018-05-24T04:30:55.718Z,15.97
2018-05-24T04:33:23.586Z,15.93
2018-05-24T04:35:51.948Z,15.77
2018-05-24T04:38:19.566Z,17.00
2018-05-24T04:40:47.156Z,16.60
2018-05-24T04:43:14.757Z,18.60
2018-05-24T04:45:43.223Z,18.50
2018-05-24T04:48:10.851Z,17.93
2018-05-24T04:50:40.893Z,17.50
2018-05-24T04:53:10.949Z,16.40
2018-05-24T04:55:38.551Z,15.90
2018-05-24T04:58:06.146Z,15.57
2018-05-24T05:00:34.278Z,16.87
2018-05-24T05:03:02.738Z,19.00
2018-05-24T05:05:31.293Z,16.13
2018-05-24T05:07:58.893Z,15.10
2018-05-24T05:10:28.292Z,17.40
2018-05-24T05:12:56.674Z,14.37
2018-05-24T05:15:24.609Z,16.00
2018-05-24T05:17:52.318Z,16.30
2018-05-24T05:20:19.977Z,15.47
2018-05-24T05:22:47.562Z,16.33
2018-05-24T05:25:15.213Z,14.33
2018-05-24T05:27:44.125Z,16.77
2018-05-24T05:30:13.383Z,14.97
2018-05-24T05:32:42.122Z,17.40
2018-05-24T05:35:10.302Z,15.13
2018-05-24T05:37:38.786Z,16.43
2018-05-24T05:40:06.399Z,17.87
2018-05-24T05:42:34.005Z,19.13
2018-05-24T05:45:01.734Z,13.67
2018-05-24T05:47:29.350Z,19.77
2018-05-24T05:49:56.989Z,18.23
2018-05-24T05:52:24.726Z,14.43
2018-05-24T05:54:52.387Z,17.17
2018-05-24T05:57:20.691Z,17.90
2018-05-24T05:59:49.297Z,17.13
2018-05-24T06:02:19.091Z,16.63
2018-05-24T06:04:47.494Z,15.20
2018-05-24T06:07:15.116Z,16.97
2018-05-24T06:09:43.203Z,17.67
2018-05-24T06:12:11.028Z,16.47
2018-05-24T06:14:38.827Z,14.23
2018-05-24T06:17:06.973Z,16.47
2018-05-24T06:19:34.621Z,16.63
2018-05-24T06:22:02.334Z,16.57
2018-05-24T06:24:30.031Z,15.73
2018-05-24T06:26:58.190Z,16.40
2018-05-24T06:29:26.084Z,16.20
2018-05-24T06:31:54.345Z,16.90
2018-05-24T06:34:23.706Z,15.33
2018-05-24T06:36:52.010Z,16.87
2018-05-24T06:39:19.957Z,16.23
2018-05-24T06:41:47.848Z,16.73
2018-05-24T06:44:16.307Z,15.90
2018-05-24T06:46:43.964Z,16.60
2018-05-24T06:49:11.958Z,16.90
2018-05-24T06:51:39.654Z,16.90
2018-05-24T06:54:08.074Z,17.27
2018-05-24T06:56:35.767Z,16.57
2018-05-24T06:59:03.397Z,17.47
2018-05-24T07:01:32.146Z,17.80
2018-05-24T07:04:01.758Z,17.07
2018-05-24T07:06:37.777Z,18.20
2018-05-24T07:09:12.215Z,18.63
2018-05-24T07:11:40.918Z,17.67
2018-05-24T07:14:08.677Z,18.27
2018-05-24T07:16:37.440Z,17.27
2018-05-24T07:19:05.731Z,17.83
2018-05-24T07:21:34.326Z,16.60
2018-05-24T07:24:04.769Z,18.13
2018-05-24T07:29:11.703Z,18.00
2018-05-24T07:31:39.354Z,17.53
2018-05-24T07:34:07.760Z,19.17
2018-05-24T07:36:35.363Z,18.33
2018-05-24T07:39:03.021Z,19.00
2018-05-24T07:41:30.638Z,18.60
2018-05-24T07:43:58.297Z,19.70
2018-05-24T07:46:26.080Z,18.20
2018-05-24T07:48:53.775Z,19.40
2018-05-24T07:51:21.495Z,19.67
2018-05-24T07:53:49.987Z,19.30
2018-05-24T07:56:18.366Z,18.80
2018-05-24T07:58:45.982Z,18.97
2018-05-24T08:01:13.630Z,21.10
2018-05-24T08:03:41.213Z,20.53
2018-05-24T08:06:08.823Z,21.50
2018-05-24T08:08:36.582Z,18.90
2018-05-24T08:11:04.129Z,18.93
2018-05-24T08:13:32.499Z,19.40
2018-05-24T08:16:00.733Z,18.10
2018-05-24T08:18:28.378Z,18.70
2018-05-24T08:20:56.010Z,17.83
2018-05-24T08:23:23.641Z,18.50
2018-05-24T08:25:51.326Z,16.33
2018-05-24T08:28:18.955Z,17.70
2018-05-24T08:30:46.749Z,16.97
2018-05-24T08:33:14.786Z,17.33
2018-05-24T08:35:42.378Z,17.17
2018-05-24T08:38:10.014Z,15.37
2018-05-24T08:40:37.675Z,16.63
2018-05-24T08:43:06.121Z,15.73
2018-05-24T08:45:33.843Z,15.43
2018-05-24T08:48:01.478Z,16.37
2018-05-24T08:50:29.878Z,15.67
2018-05-24T08:52:59.032Z,14.27
2018-05-24T08:55:26.622Z,17.37
2018-05-24T08:57:55.858Z,16.10
2018-05-24T09:00:23.601Z,16.73
2018-05-24T09:02:52.493Z,16.40
2018-05-24T09:05:20.117Z,14.97
2018-05-24T09:07:47.773Z,15.97
2018-05-24T09:10:15.375Z,15.43
2018-05-24T09:12:43.402Z,15.50
2018-05-24T09:15:11.081Z,15.80
2018-05-24T09:17:38.774Z,15.33
2018-05-24T09:20:06.657Z,15.57
2018-05-24T09:22:36.065Z,15.97
2018-05-24T09:25:03.711Z,14.77
2018-05-24T09:27:32.070Z,14.50
2018-05-24T09:30:00.294Z,15.67
2018-05-24T09:32:28.714Z,15.47
2018-05-24T09:34:56.293Z,14.03
2018-05-24T09:37:24.285Z,14.07
2018-05-24T09:39:52.695Z,15.23
2018-05-24T09:42:20.353Z,14.93
2018-05-24T09:44:47.995Z,14.70
2018-05-24T09:47:15.617Z,14.37
2018-05-24T09:49:43.202Z,15.17
2018-05-24T09:52:10.861Z,14.00
2018-05-24T09:54:39.375Z,15.67
2018-05-24T09:57:07.480Z,15.33
2018-05-24T09:59:35.534Z,15.03
2018-05-24T10:02:03.958Z,15.07
2018-05-24T10:04:32.375Z,13.77
2018-05-24T10:06:59.937Z,13.70
2018-05-24T10:09:27.545Z,14.77
2018-05-24T10:11:55.131Z,15.47
2018-05-24T10:14:23.706Z,14.47
2018-05-24T10:16:51.611Z,14.83
2018-05-24T10:19:19.331Z,14.20
2018-05-24T10:21:48.046Z,14.27
2018-05-24T10:24:16.661Z,15.73
2018-05-24T10:26:45.147Z,15.07
2018-05-24T10:29:13.673Z,13.23
2018-05-24T10:31:41.355Z,15.10
2018-05-24T10:34:08.978Z,16.27
2018-05-24T10:36:37.025Z,15.37
2018-05-24T10:39:05.966Z,15.97
2018-05-24T10:41:34.740Z,15.33
2018-05-24T10:44:03.391Z,16.93
2018-05-24T10:46:31.330Z,15.57
2018-05-24T10:48:58.948Z,16.87
2018-05-24T10:51:27.329Z,16.37
2018-05-24T10:53:54.936Z,17.57
2018-05-24T10:56:22.541Z,16.20
2018-05-24T10:58:50.177Z,16.57
2018-05-24T11:01:17.809Z,17.33
2018-05-24T11:03:45.465Z,15.30
2018-05-24T11:06:13.070Z,17.90
2018-05-24T11:08:40.730Z,17.10
2018-05-24T11:11:08.316Z,16.67
2018-05-24T11:13:35.961Z,16.57
2018-05-24T11:16:03.617Z,15.93
2018-05-24T11:18:31.202Z,17.00
2018-05-24T11:20:59.082Z,18.50
2018-05-24T11:23:26.736Z,17.73
2018-05-24T11:25:54.359Z,18.43
2018-05-24T11:28:21.977Z,17.00
2018-05-24T11:30:50.067Z,19.87
2018-05-24T11:33:17.662Z,15.53
2018-05-24T11:35:45.268Z,19.03
2018-05-24T11:38:12.897Z,16.73
2018-05-24T11:40:40.498Z,18.20
2018-05-24T11:43:08.208Z,18.70
2018-05-24T11:45:36.487Z,20.63
2018-05-24T11:48:05.109Z,19.23
2018-05-24T11:50:32.852Z,18.93
2018-05-24T11:53:00.500Z,17.47
2018-05-24T11:55:28.473Z,20.80
2018-05-24T11:57:56.846Z,17.20
2018-05-24T12:00:24.465Z,17.30
2018-05-24T12:02:52.484Z,19.90
2018-05-24T12:05:20.833Z,18.23
2018-05-24T12:07:48.423Z,18.53
2018-05-24T12:10:16.811Z,20.37
2018-05-24T12:12:44.403Z,20.33
2018-05-24T12:15:12.291Z,17.73
2018-05-24T12:17:41.502Z,18.30
2018-05-24T12:20:10.051Z,20.87
2018-05-24T12:22:37.689Z,18.53
2018-05-24T12:25:06.774Z,19.90
2018-05-24T12:27:35.352Z,19.73
2018-05-24T12:30:03.414Z,20.87
2018-05-24T12:32:31.057Z,19.20
2018-05-24T12:34:59.574Z,20.77
2018-05-24T12:37:27.354Z,19.83
2018-05-24T12:39:55.833Z,21.60
2018-05-24T12:42:23.541Z,21.50
2018-05-24T12:44:51.532Z,20.07
2018-05-24T12:47:19.281Z,21.03
2018-05-24T12:49:47.113Z,21.37
2018-05-24T12:52:14.722Z,20.07
2018-05-24T12:54:42.372Z,22.27
2018-05-24T12:57:10.687Z,20.93
2018-05-24T12:59:39.864Z,21.93
2018-05-24T13:02:07.496Z,21.90
2018-05-24T13:04:37.150Z,21.57
2018-05-24T13:07:05.534Z,20.23
2018-05-24T13:09:33.172Z,21.23
2018-05-24T13:12:01.042Z,20.60
2018-05-24T13:14:28.669Z,22.20
2018-05-24T13:16:56.577Z,20.50
2018-05-24T13:19:24.273Z,22.23
2018-05-24T13:21:51.934Z,20.90
2018-05-24T13:24:19.941Z,22.07
2018-05-24T13:26:47.635Z,22.60
2018-05-24T13:29:15.643Z,21.30
2018-05-24T13:31:44.062Z,22.00
2018-05-24T13:34:11.705Z,22.60
2018-05-24T13:36:39.317Z,19.33
2018-05-24T13:39:07.743Z,21.53
2018-05-24T13:41:35.401Z,20.43
2018-05-24T13:44:03.074Z,22.80
2018-05-24T13:46:30.730Z,21.77
2018-05-24T13:48:58.474Z,22.37
2018-05-24T13:51:26.086Z,23.70
2018-05-24T13:53:53.815Z,23.00
2018-05-24T13:56:21.502Z,23.07
2018-05-24T13:58:50.102Z,23.17
2018-05-24T14:01:17.899Z,24.17
2018-05-24T14:03:46.981Z,26.00
2018-05-24T14:06:14.614Z,23.77
2018-05-24T14:08:42.319Z,23.67
2018-05-24T14:11:10.731Z,22.30
2018-05-24T14:13:38.466Z,22.83
2018-05-24T14:16:06.976Z,19.97
2018-05-24T14:18:35.394Z,23.07
2018-05-24T14:21:03.525Z,25.10
2018-05-24T14:23:32.332Z,23.40
2018-05-24T14:25:59.997Z,23.60
2018-05-24T14:28:27.610Z,23.97
2018-05-24T14:30:55.261Z,24.53
2018-05-24T14:33:23.848Z,21.70
2018-05-24T14:35:51.871Z,23.13
2018-05-24T14:38:19.545Z,22.93
2018-05-24T14:40:47.408Z,23.27
2018-05-24T14:43:15.327Z,22.63
2018-05-24T14:45:44.008Z,25.10
2018-05-24T14:48:11.697Z,24.57
2018-05-24T14:50:40.216Z,24.93
2018-05-24T14:53:08.659Z,21.43
2018-05-24T14:55:37.765Z,20.90
2018-05-24T14:58:05.513Z,23.37
2018-05-24T15:00:33.310Z,22.00
2018-05-24T15:03:01.214Z,26.00
2018-05-24T15:05:28.933Z,23.77
2018-05-24T15:07:56.608Z,23.17
2018-05-24T15:10:25.155Z,23.37
2018-05-24T15:12:52.845Z,19.70
2018-05-24T15:15:21.510Z,21.10
2018-05-24T15:17:49.927Z,24.07
2018-05-24T15:20:17.579Z,24.47
2018-05-24T15:22:45.224Z,23.33
2018-05-24T15:25:12.932Z,23.90
2018-05-24T15:27:41.470Z,22.33
2018-05-24T15:30:09.134Z,24.50
2018-05-24T15:32:37.193Z,21.40
2018-05-24T15:35:04.878Z,22.63
2018-05-24T15:37:32.522Z,22.57
2018-05-24T15:40:00.164Z,23.30
2018-05-24T15:42:28.691Z,23.20
2018-05-24T15:44:56.321Z,23.63
2018-05-24T15:47:24.802Z,23.27
2018-05-24T15:49:53.634Z,25.17
2018-05-24T15:52:21.233Z,21.57
2018-05-24T15:54:48.885Z,23.27
2018-05-24T15:57:16.536Z,23.50
2018-05-24T15:59:44.148Z,22.07
2018-05-24T16:02:12.673Z,19.90
2018-05-24T16:04:40.293Z,21.83
2018-05-24T16:07:07.930Z,20.90
2018-05-24T16:09:35.657Z,21.80
2018-05-24T16:12:03.266Z,20.70
2018-05-24T16:14:31.045Z,21.90
2018-05-24T16:17:01.164Z,17.60
2018-05-24T16:19:29.946Z,22.30
2018-05-24T16:21:58.439Z,20.70
2018-05-24T16:24:29.669Z,21.53
2018-05-24T16:26:57.774Z,21.70
2018-05-24T16:29:27.574Z,20.27
2018-05-24T16:31:56.405Z,25.27
2018-05-24T16:34:24.207Z,21.50
2018-05-24T16:36:52.374Z,24.83
2018-05-24T16:39:20.281Z,23.70
2018-05-24T16:41:48.829Z,21.73
2018-05-24T16:44:16.493Z,23.50
2018-05-24T16:46:44.251Z,21.10
2018-05-24T16:49:12.476Z,23.20
2018-05-24T16:51:40.224Z,21.70
2018-05-24T16:54:08.015Z,19.90
2018-05-24T16:56:35.770Z,22.50
2018-05-24T16:59:03.501Z,23.10
2018-05-24T17:01:31.415Z,21.77
2018-05-24T17:03:59.022Z,18.13
2018-05-24T17:06:27.179Z,22.17
2018-05-24T17:08:55.285Z,21.77
2018-05-24T17:11:23.824Z,21.13
2018-05-24T17:13:52.414Z,23.73
2018-05-24T17:16:20.386Z,21.47
2018-05-24T17:18:48.146Z,21.47
2018-05-24T17:21:15.994Z,20.93
2018-05-24T17:23:43.680Z,20.67
2018-05-24T17:26:11.433Z,18.40
2018-05-24T17:28:40.248Z,22.73
2018-05-24T17:31:07.931Z,18.83
2018-05-24T17:33:37.032Z,22.27
2018-05-24T17:36:04.773Z,20.70
2018-05-24T17:38:33.255Z,22.27
2018-05-24T17:41:00.980Z,21.50
2018-05-24T17:43:29.443Z,25.10
2018-05-24T17:45:57.039Z,19.20
2018-05-24T17:48:24.669Z,18.50
2018-05-24T17:50:52.327Z,19.20
2018-05-24T17:53:23.898Z,21.87
2018-05-24T17:55:51.721Z,22.70
2018-05-24T17:58:21.962Z,23.90
2018-05-24T18:00:49.588Z,21.20
2018-05-24T18:03:17.316Z,22.07
2018-05-24T18:05:44.954Z,26.03
2018-05-24T18:08:13.328Z,23.30
2018-05-24T18:10:41.744Z,25.70
2018-05-24T18:13:10.222Z,25.33
2018-05-24T18:15:39.762Z,22.93
2018-05-24T18:18:07.450Z,25.80
2018-05-24T18:20:35.091Z,27.33
2018-05-24T18:23:02.771Z,26.00
2018-05-24T18:25:31.146Z,23.27
2018-05-24T18:27:58.944Z,20.70
2018-05-24T18:30:27.790Z,18.80
2018-05-24T18:32:56.075Z,21.20
2018-05-24T18:35:24.562Z,23.47
2018-05-24T18:37:52.507Z,21.90
2018-05-24T18:40:20.197Z,20.70
2018-05-24T18:42:48.391Z,23.90
2018-05-24T18:45:16.291Z,20.10
2018-05-24T18:47:44.008Z,18.13
2018-05-24T18:50:19.697Z,22.50
2018-05-24T18:52:47.329Z,23.50
2018-05-24T18:55:15.012Z,24.47
2018-05-24T18:57:42.667Z,20.93
2018-05-24T19:00:11.119Z,19.27
2018-05-24T19:02:38.756Z,19.17
2018-05-24T19:05:06.428Z,21.00
2018-05-24T19:07:34.074Z,19.73
2018-05-24T19:10:01.874Z,20.40
2018-05-24T19:12:29.599Z,22.93
2018-05-24T19:14:58.702Z,24.10
2018-05-24T19:17:27.184Z,21.13
2018-05-24T19:19:54.823Z,20.40
2018-05-24T19:22:22.399Z,25.20
2018-05-24T19:24:50.181Z,23.77
2018-05-24T19:27:18.549Z,21.13
2018-05-24T19:29:46.226Z,17.20
2018-05-24T19:32:14.033Z,17.70
2018-05-24T19:34:41.811Z,21.10
2018-05-24T19:37:09.425Z,20.63
2018-05-24T19:39:37.043Z,18.40
2018-05-24T19:42:04.735Z,19.83
2018-05-24T19:44:32.677Z,20.33
2018-05-24T19:47:00.533Z,27.47
2018-05-24T19:49:28.459Z,27.40
2018-05-24T19:51:56.941Z,25.33
2018-05-24T19:54:24.621Z,22.33
2018-05-24T19:56:52.282Z,20.87
2018-05-24T19:59:20.719Z,22.07
2018-05-24T20:01:50.748Z,26.90
2018-05-24T20:04:18.553Z,22.37
2018-05-24T20:06:47.710Z,23.67
2018-05-24T20:09:15.472Z,21.00
2018-05-24T20:14:18.013Z,27.70
2018-05-24T20:16:52.602Z,26.43
2018-05-24T20:19:20.222Z,23.43
2018-05-24T20:21:50.712Z,21.77
2018-05-24T20:24:18.394Z,23.83
2018-05-24T20:26:47.203Z,27.13
2018-05-24T20:29:16.039Z,33.37
2018-05-24T20:31:43.733Z,32.67
2018-05-24T20:34:11.365Z,37.70
2018-05-24T20:36:39.885Z,34.17
2018-05-24T20:39:10.074Z,30.83
2018-05-24T20:41:37.766Z,33.23
2018-05-24T20:44:06.535Z,37.33
2018-05-24T20:46:35.277Z,33.77
2018-05-24T20:49:04.804Z,39.10
2018-05-24T20:51:35.141Z,36.30
2018-05-24T20:54:02.844Z,34.70
2018-05-24T20:56:30.492Z,39.70
2018-05-24T20:58:58.821Z,38.83
2018-05-24T21:01:28.389Z,33.37
2018-05-24T21:03:56.086Z,29.73
2018-05-24T21:06:24.130Z,27.30
2018-05-24T21:08:52.549Z,26.50
2018-05-24T21:11:20.863Z,29.67
2018-05-24T21:13:48.512Z,26.50
2018-05-24T21:16:17.643Z,25.07
2018-05-24T21:18:45.697Z,25.13
2018-05-24T21:21:14.593Z,23.73
2018-05-24T21:23:42.309Z,24.80
2018-05-24T21:26:11.296Z,28.63
2018-05-24T21:28:39.032Z,30.52
2018-05-24T21:31:07.550Z,28.37
2018-05-24T21:33:36.361Z,32.23
2018-05-24T21:36:05.320Z,28.17
2018-05-24T21:38:34.005Z,29.80
2018-05-24T21:41:04.569Z,27.57
2018-05-24T21:43:32.532Z,27.63
2018-05-24T21:46:00.247Z,30.17
2018-05-24T21:48:27.920Z,27.87
2018-05-24T21:50:56.159Z,27.83
2018-05-24T21:53:25.902Z,32.73
2018-05-24T21:55:54.332Z,33.83
2018-05-24T21:58:22.014Z,36.07
2018-05-24T22:00:52.154Z,40.10
2018-05-24T22:03:19.785Z,36.50
2018-05-24T22:05:47.439Z,31.80
2018-05-24T22:08:15.061Z,29.63
2018-05-24T22:10:42.733Z,26.73
2018-05-24T22:13:10.361Z,23.87
2018-05-24T22:15:38.585Z,19.13
2018-05-24T22:18:06.317Z,18.90
2018-05-24T22:20:34.044Z,18.97
2018-05-24T22:23:02.019Z,20.03
2018-05-24T22:25:30.451Z,20.43
2018-05-24T22:27:58.553Z,18.40
2018-05-24T22:30:26.232Z,19.87
2018-05-24T22:32:53.969Z,19.57
2018-05-24T22:35:21.597Z,17.50
2018-05-24T22:37:49.988Z,24.40
2018-05-24T22:40:18.594Z,21.40
2018-05-24T22:42:46.179Z,20.00
2018-05-24T22:45:13.843Z,19.07
2018-05-24T22:47:41.453Z,18.10
2018-05-24T22:50:09.070Z,22.53
2018-05-24T22:52:37.226Z,21.90
2018-05-24T22:55:04.856Z,19.50
2018-05-24T22:57:32.489Z,22.23
2018-05-24T23:00:00.156Z,19.83
2018-05-24T23:02:27.763Z,17.80
2018-05-24T23:04:55.490Z,16.73
2018-05-24T23:07:23.072Z,18.10
2018-05-24T23:09:50.807Z,17.03
2018-05-24T23:12:18.419Z,17.60
2018-05-24T23:14:46.858Z,21.37
2018-05-24T23:17:14.537Z,19.13
2018-05-24T23:19:42.311Z,18.50
2018-05-24T23:22:12.653Z,18.13
2018-05-24T23:24:40.292Z,16.17
2018-05-24T23:27:07.906Z,15.27
2018-05-24T23:29:36.293Z,18.60
2018-05-24T23:32:04.804Z,19.53
2018-05-24T23:34:32.423Z,18.47
2018-05-24T23:37:00.880Z,18.83
2018-05-24T23:39:28.530Z,18.47
2018-05-24T23:41:56.937Z,18.27
2018-05-24T23:44:24.562Z,16.30
2018-05-24T23:46:52.178Z,16.03
2018-05-24T23:49:20.635Z,16.23
2018-05-24T23:51:51.504Z,20.97
2018-05-24T23:54:19.118Z,20.90
2018-05-24T23:56:46.749Z,25.93
2018-05-24T23:59:14.487Z,24.37
